sensor_id;sensor_type;location;lat;lon;timestamp;P1;durP1;ratioP1;P2;durP2;ratioP2
24557;SDS011;12726;49.148;8.582;2023-03-01T00:01:04;14.43;;;9.05;;
24557;SDS011;12726;49.148;8.582;2023-03-01T00:03:53;13.93;;;8.13;;
24557;SDS011;12726;49.148;8.582;2023-03-01T00:06:38;17.00;;;8.80;;
24557;SDS011;12726;49.148;8.582;2023-03-01T00:09:24;14.02;;;8.95;;
24557;SDS011;12726;49.148;8.582;2023-03-01T00:12:11;16.45;;;8.88;;
24557;SDS011;12726;49.148;8.582;2023-03-01T00:14:59;15.30;;;8.63;;
24557;SDS011;12726;49.148;8.582;2023-03-01T00:17:44;14.48;;;8.60;;
24557;SDS011;12726;49.148;8.582;2023-03-01T00:20:31;13.48;;;8.68;;
24557;SDS011;12726;49.148;8.582;2023-03-01T00:23:17;15.48;;;8.63;;
24557;SDS011;12726;49.148;8.582;2023-03-01T00:26:05;17.08;;;9.30;;
24557;SDS011;12726;49.148;8.582;2023-03-01T00:28:51;16.92;;;9.85;;
24557;SDS011;12726;49.148;8.582;2023-03-01T00:31:37;16.38;;;9.02;;
24557;SDS011;12726;49.148;8.582;2023-03-01T00:34:22;17.30;;;9.15;;
24557;SDS011;12726;49.148;8.582;2023-03-01T00:37:09;16.38;;;9.52;;
24557;SDS011;12726;49.148;8.582;2023-03-01T00:39:54;16.80;;;9.77;;
24557;SDS011;12726;49.148;8.582;2023-03-01T00:42:40;16.88;;;9.73;;
24557;SDS011;12726;49.148;8.582;2023-03-01T00:45:25;16.42;;;9.68;;
24557;SDS011;12726;49.148;8.582;2023-03-01T00:48:11;14.82;;;9.30;;
24557;SDS011;12726;49.148;8.582;2023-03-01T00:50:56;16.33;;;9.05;;
24557;SDS011;12726;49.148;8.582;2023-03-01T00:53:43;17.45;;;9.70;;
24557;SDS011;12726;49.148;8.582;2023-03-01T00:56:29;18.45;;;10.00;;
24557;SDS011;12726;49.148;8.582;2023-03-01T00:59:15;16.73;;;9.80;;
24557;SDS011;12726;49.148;8.582;2023-03-01T01:02:01;16.25;;;9.57;;
24557;SDS011;12726;49.148;8.582;2023-03-01T01:04:46;16.73;;;9.63;;
24557;SDS011;12726;49.148;8.582;2023-03-01T01:07:31;18.58;;;9.32;;
24557;SDS011;12726;49.148;8.582;2023-03-01T01:10:18;17.55;;;9.52;;
24557;SDS011;12726;49.148;8.582;2023-03-01T01:13:04;19.92;;;10.60;;
24557;SDS011;12726;49.148;8.582;2023-03-01T01:15:49;15.95;;;9.60;;
24557;SDS011;12726;49.148;8.582;2023-03-01T01:18:35;26.58;;;11.98;;
24557;SDS011;12726;49.148;8.582;2023-03-01T01:21:21;24.27;;;11.73;;
24557;SDS011;12726;49.148;8.582;2023-03-01T01:24:09;31.27;;;13.40;;
24557;SDS011;12726;49.148;8.582;2023-03-01T01:26:56;21.80;;;10.68;;
24557;SDS011;12726;49.148;8.582;2023-03-01T01:29:41;18.05;;;10.02;;
24557;SDS011;12726;49.148;8.582;2023-03-01T01:32:26;21.58;;;10.27;;
24557;SDS011;12726;49.148;8.582;2023-03-01T01:35:12;15.70;;;9.10;;
24557;SDS011;12726;49.148;8.582;2023-03-01T01:37:57;16.20;;;9.40;;
24557;SDS011;12726;49.148;8.582;2023-03-01T01:40:43;16.23;;;9.00;;
24557;SDS011;12726;49.148;8.582;2023-03-01T01:43:32;15.90;;;9.65;;
24557;SDS011;12726;49.148;8.582;2023-03-01T01:46:21;17.58;;;9.68;;
24557;SDS011;12726;49.148;8.582;2023-03-01T01:49:17;17.08;;;9.82;;
24557;SDS011;12726;49.148;8.582;2023-03-01T01:52:09;18.38;;;10.35;;
24557;SDS011;12726;49.148;8.582;2023-03-01T01:54:59;18.85;;;10.63;;
24557;SDS011;12726;49.148;8.582;2023-03-01T01:57:48;15.73;;;10.13;;
24557;SDS011;12726;49.148;8.582;2023-03-01T02:00:39;17.75;;;10.38;;
24557;SDS011;12726;49.148;8.582;2023-03-01T02:03:25;18.98;;;10.02;;
24557;SDS011;12726;49.148;8.582;2023-03-01T02:06:18;17.13;;;9.90;;
24557;SDS011;12726;49.148;8.582;2023-03-01T02:09:08;19.38;;;10.15;;
24557;SDS011;12726;49.148;8.582;2023-03-01T02:11:57;18.10;;;10.35;;
24557;SDS011;12726;49.148;8.582;2023-03-01T02:14:44;19.33;;;10.68;;
24557;SDS011;12726;49.148;8.582;2023-03-01T02:17:31;17.75;;;10.38;;
24557;SDS011;12726;49.148;8.582;2023-03-01T02:20:19;17.60;;;10.55;;
24557;SDS011;12726;49.148;8.582;2023-03-01T02:23:11;19.80;;;10.85;;
24557;SDS011;12726;49.148;8.582;2023-03-01T02:26:00;21.73;;;10.63;;
24557;SDS011;12726;49.148;8.582;2023-03-01T02:28:52;21.45;;;10.70;;
24557;SDS011;12726;49.148;8.582;2023-03-01T02:31:37;17.92;;;10.65;;
24557;SDS011;12726;49.148;8.582;2023-03-01T02:34:29;20.70;;;11.30;;
24557;SDS011;12726;49.148;8.582;2023-03-01T02:37:16;20.55;;;10.95;;
24557;SDS011;12726;49.148;8.582;2023-03-01T02:40:08;20.55;;;11.27;;
24557;SDS011;12726;49.148;8.582;2023-03-01T02:42:59;21.30;;;10.93;;
24557;SDS011;12726;49.148;8.582;2023-03-01T02:45:49;20.38;;;10.85;;
24557;SDS011;12726;49.148;8.582;2023-03-01T02:48:40;20.50;;;11.20;;
24557;SDS011;12726;49.148;8.582;2023-03-01T02:51:31;22.50;;;11.38;;
24557;SDS011;12726;49.148;8.582;2023-03-01T02:54:28;19.00;;;10.13;;
24557;SDS011;12726;49.148;8.582;2023-03-01T02:57:18;19.70;;;11.13;;
24557;SDS011;12726;49.148;8.582;2023-03-01T03:00:07;20.95;;;10.90;;
24557;SDS011;12726;49.148;8.582;2023-03-01T03:03:04;21.00;;;11.15;;
24557;SDS011;12726;49.148;8.582;2023-03-01T03:05:49;24.08;;;11.05;;
24557;SDS011;12726;49.148;8.582;2023-03-01T03:08:35;19.95;;;10.45;;
24557;SDS011;12726;49.148;8.582;2023-03-01T03:11:20;20.13;;;11.07;;
24557;SDS011;12726;49.148;8.582;2023-03-01T03:14:06;18.52;;;11.00;;
24557;SDS011;12726;49.148;8.582;2023-03-01T03:16:56;19.83;;;10.52;;
24557;SDS011;12726;49.148;8.582;2023-03-01T03:19:42;20.35;;;11.07;;
24557;SDS011;12726;49.148;8.582;2023-03-01T03:22:29;17.25;;;10.40;;
24557;SDS011;12726;49.148;8.582;2023-03-01T03:25:14;17.63;;;11.05;;
24557;SDS011;12726;49.148;8.582;2023-03-01T03:28:00;20.40;;;12.15;;
24557;SDS011;12726;49.148;8.582;2023-03-01T03:30:48;20.27;;;11.38;;
24557;SDS011;12726;49.148;8.582;2023-03-01T03:33:33;21.33;;;11.18;;
24557;SDS011;12726;49.148;8.582;2023-03-01T03:36:21;19.73;;;11.68;;
24557;SDS011;12726;49.148;8.582;2023-03-01T03:39:08;19.73;;;12.00;;
24557;SDS011;12726;49.148;8.582;2023-03-01T03:41:54;19.98;;;12.02;;
24557;SDS011;12726;49.148;8.582;2023-03-01T03:44:39;24.10;;;11.95;;
24557;SDS011;12726;49.148;8.582;2023-03-01T03:47:25;20.33;;;11.88;;
24557;SDS011;12726;49.148;8.582;2023-03-01T03:50:10;20.75;;;11.60;;
24557;SDS011;12726;49.148;8.582;2023-03-01T03:52:59;20.48;;;11.23;;
24557;SDS011;12726;49.148;8.582;2023-03-01T03:55:45;22.45;;;11.30;;
24557;SDS011;12726;49.148;8.582;2023-03-01T03:58:32;20.05;;;11.60;;
24557;SDS011;12726;49.148;8.582;2023-03-01T04:01:18;22.15;;;11.65;;
24557;SDS011;12726;49.148;8.582;2023-03-01T04:04:04;24.90;;;12.73;;
24557;SDS011;12726;49.148;8.582;2023-03-01T04:06:51;19.48;;;10.82;;
24557;SDS011;12726;49.148;8.582;2023-03-01T04:09:38;20.55;;;10.52;;
24557;SDS011;12726;49.148;8.582;2023-03-01T04:12:23;23.52;;;12.35;;
24557;SDS011;12726;49.148;8.582;2023-03-01T04:15:09;18.90;;;10.90;;
24557;SDS011;12726;49.148;8.582;2023-03-01T04:17:57;19.95;;;11.98;;
24557;SDS011;12726;49.148;8.582;2023-03-01T04:20:44;24.40;;;13.13;;
24557;SDS011;12726;49.148;8.582;2023-03-01T04:23:29;22.08;;;12.85;;
24557;SDS011;12726;49.148;8.582;2023-03-01T04:26:16;19.85;;;11.40;;
24557;SDS011;12726;49.148;8.582;2023-03-01T04:29:02;23.63;;;12.50;;
24557;SDS011;12726;49.148;8.582;2023-03-01T04:31:47;25.50;;;13.23;;
24557;SDS011;12726;49.148;8.582;2023-03-01T04:34:33;26.10;;;13.95;;
24557;SDS011;12726;49.148;8.582;2023-03-01T04:37:19;33.63;;;16.38;;
24557;SDS011;12726;49.148;8.582;2023-03-01T04:40:05;31.42;;;16.40;;
24557;SDS011;12726;49.148;8.582;2023-03-01T04:43:02;28.50;;;14.38;;
24557;SDS011;12726;49.148;8.582;2023-03-01T04:45:48;24.08;;;13.02;;
24557;SDS011;12726;49.148;8.582;2023-03-01T04:48:34;25.70;;;14.00;;
24557;SDS011;12726;49.148;8.582;2023-03-01T04:51:20;25.35;;;13.50;;
24557;SDS011;12726;49.148;8.582;2023-03-01T04:54:05;21.25;;;12.27;;
24557;SDS011;12726;49.148;8.582;2023-03-01T04:56:52;25.08;;;12.95;;
24557;SDS011;12726;49.148;8.582;2023-03-01T04:59:40;21.50;;;12.10;;
24557;SDS011;12726;49.148;8.582;2023-03-01T05:02:25;23.15;;;12.68;;
24557;SDS011;12726;49.148;8.582;2023-03-01T05:05:10;24.20;;;11.70;;
24557;SDS011;12726;49.148;8.582;2023-03-01T05:07:57;21.67;;;12.73;;
24557;SDS011;12726;49.148;8.582;2023-03-01T05:10:44;23.38;;;12.63;;
24557;SDS011;12726;49.148;8.582;2023-03-01T05:13:31;24.88;;;13.45;;
24557;SDS011;12726;49.148;8.582;2023-03-01T05:16:18;21.27;;;11.75;;
24557;SDS011;12726;49.148;8.582;2023-03-01T05:19:04;22.58;;;12.27;;
24557;SDS011;12726;49.148;8.582;2023-03-01T05:21:55;23.13;;;12.77;;
24557;SDS011;12726;49.148;8.582;2023-03-01T05:24:56;25.40;;;12.43;;
24557;SDS011;12726;49.148;8.582;2023-03-01T05:27:41;22.70;;;12.85;;
24557;SDS011;12726;49.148;8.582;2023-03-01T05:30:27;26.67;;;13.52;;
24557;SDS011;12726;49.148;8.582;2023-03-01T05:33:13;26.05;;;14.27;;
24557;SDS011;12726;49.148;8.582;2023-03-01T05:35:59;22.95;;;13.60;;
24557;SDS011;12726;49.148;8.582;2023-03-01T05:38:44;22.58;;;13.20;;
24557;SDS011;12726;49.148;8.582;2023-03-01T05:41:30;24.38;;;12.73;;
24557;SDS011;12726;49.148;8.582;2023-03-01T05:44:15;23.45;;;12.93;;
24557;SDS011;12726;49.148;8.582;2023-03-01T05:47:01;25.08;;;12.73;;
24557;SDS011;12726;49.148;8.582;2023-03-01T05:49:48;24.02;;;12.63;;
24557;SDS011;12726;49.148;8.582;2023-03-01T05:52:34;25.55;;;13.60;;
24557;SDS011;12726;49.148;8.582;2023-03-01T05:55:20;23.50;;;13.15;;
24557;SDS011;12726;49.148;8.582;2023-03-01T05:58:09;30.33;;;15.00;;
24557;SDS011;12726;49.148;8.582;2023-03-01T06:00:57;27.40;;;13.95;;
24557;SDS011;12726;49.148;8.582;2023-03-01T06:03:42;28.45;;;13.77;;
24557;SDS011;12726;49.148;8.582;2023-03-01T06:06:29;29.50;;;16.00;;
24557;SDS011;12726;49.148;8.582;2023-03-01T06:09:18;37.33;;;18.48;;
24557;SDS011;12726;49.148;8.582;2023-03-01T06:12:03;36.08;;;17.98;;
24557;SDS011;12726;49.148;8.582;2023-03-01T06:14:49;30.70;;;16.75;;
24557;SDS011;12726;49.148;8.582;2023-03-01T06:17:35;29.52;;;15.88;;
24557;SDS011;12726;49.148;8.582;2023-03-01T06:20:22;33.40;;;17.67;;
24557;SDS011;12726;49.148;8.582;2023-03-01T06:23:10;28.58;;;16.13;;
24557;SDS011;12726;49.148;8.582;2023-03-01T06:25:55;33.70;;;17.40;;
24557;SDS011;12726;49.148;8.582;2023-03-01T06:28:41;30.58;;;16.25;;
24557;SDS011;12726;49.148;8.582;2023-03-01T06:31:26;29.63;;;16.10;;
24557;SDS011;12726;49.148;8.582;2023-03-01T06:34:11;28.70;;;15.98;;
24557;SDS011;12726;49.148;8.582;2023-03-01T06:36:57;34.70;;;17.50;;
24557;SDS011;12726;49.148;8.582;2023-03-01T06:39:43;39.75;;;17.27;;
24557;SDS011;12726;49.148;8.582;2023-03-01T06:42:29;29.60;;;16.95;;
24557;SDS011;12726;49.148;8.582;2023-03-01T06:45:14;27.23;;;15.98;;
24557;SDS011;12726;49.148;8.582;2023-03-01T06:48:02;33.55;;;15.73;;
24557;SDS011;12726;49.148;8.582;2023-03-01T06:50:49;32.33;;;16.50;;
24557;SDS011;12726;49.148;8.582;2023-03-01T06:53:34;30.30;;;14.77;;
24557;SDS011;12726;49.148;8.582;2023-03-01T06:56:21;25.25;;;14.68;;
24557;SDS011;12726;49.148;8.582;2023-03-01T06:59:06;28.95;;;15.48;;
24557;SDS011;12726;49.148;8.582;2023-03-01T07:01:54;28.52;;;15.98;;
24557;SDS011;12726;49.148;8.582;2023-03-01T07:04:39;27.73;;;15.52;;
24557;SDS011;12726;49.148;8.582;2023-03-01T07:07:25;28.42;;;15.68;;
24557;SDS011;12726;49.148;8.582;2023-03-01T07:10:11;26.05;;;14.35;;
24557;SDS011;12726;49.148;8.582;2023-03-01T07:12:58;23.30;;;13.35;;
24557;SDS011;12726;49.148;8.582;2023-03-01T07:15:44;29.13;;;14.77;;
24557;SDS011;12726;49.148;8.582;2023-03-01T07:18:29;24.70;;;14.05;;
24557;SDS011;12726;49.148;8.582;2023-03-01T07:21:14;27.08;;;14.15;;
24557;SDS011;12726;49.148;8.582;2023-03-01T07:23:59;27.98;;;14.77;;
24557;SDS011;12726;49.148;8.582;2023-03-01T07:26:47;23.35;;;13.90;;
24557;SDS011;12726;49.148;8.582;2023-03-01T07:29:34;26.65;;;13.50;;
24557;SDS011;12726;49.148;8.582;2023-03-01T07:32:20;27.52;;;14.20;;
24557;SDS011;12726;49.148;8.582;2023-03-01T07:35:05;23.15;;;13.27;;
24557;SDS011;12726;49.148;8.582;2023-03-01T07:37:51;25.38;;;14.48;;
24557;SDS011;12726;49.148;8.582;2023-03-01T07:40:37;22.92;;;13.25;;
24557;SDS011;12726;49.148;8.582;2023-03-01T07:43:22;24.27;;;13.77;;
24557;SDS011;12726;49.148;8.582;2023-03-01T07:46:09;22.27;;;12.48;;
24557;SDS011;12726;49.148;8.582;2023-03-01T07:48:55;21.38;;;12.55;;
24557;SDS011;12726;49.148;8.582;2023-03-01T07:51:42;25.15;;;14.13;;
24557;SDS011;12726;49.148;8.582;2023-03-01T07:54:31;20.52;;;13.35;;
24557;SDS011;12726;49.148;8.582;2023-03-01T07:57:16;22.80;;;14.68;;
24557;SDS011;12726;49.148;8.582;2023-03-01T08:00:02;25.77;;;13.75;;
24557;SDS011;12726;49.148;8.582;2023-03-01T08:02:49;31.42;;;14.10;;
24557;SDS011;12726;49.148;8.582;2023-03-01T08:05:35;23.77;;;13.13;;
24557;SDS011;12726;49.148;8.582;2023-03-01T08:08:20;23.95;;;13.15;;
24557;SDS011;12726;49.148;8.582;2023-03-01T08:11:06;24.83;;;13.18;;
24557;SDS011;12726;49.148;8.582;2023-03-01T08:13:54;21.30;;;12.35;;
24557;SDS011;12726;49.148;8.582;2023-03-01T08:16:40;21.17;;;13.23;;
24557;SDS011;12726;49.148;8.582;2023-03-01T08:19:26;19.65;;;12.88;;
24557;SDS011;12726;49.148;8.582;2023-03-01T08:22:12;22.83;;;11.77;;
24557;SDS011;12726;49.148;8.582;2023-03-01T08:24:57;20.33;;;12.68;;
24557;SDS011;12726;49.148;8.582;2023-03-01T08:27:43;20.95;;;13.30;;
24557;SDS011;12726;49.148;8.582;2023-03-01T08:30:28;20.13;;;13.88;;
24557;SDS011;12726;49.148;8.582;2023-03-01T08:33:13;22.98;;;12.35;;
24557;SDS011;12726;49.148;8.582;2023-03-01T08:36:04;20.70;;;13.45;;
24557;SDS011;12726;49.148;8.582;2023-03-01T08:38:50;21.17;;;13.27;;
24557;SDS011;12726;49.148;8.582;2023-03-01T08:41:36;18.90;;;12.57;;
24557;SDS011;12726;49.148;8.582;2023-03-01T08:44:22;20.83;;;13.30;;
24557;SDS011;12726;49.148;8.582;2023-03-01T08:47:08;20.58;;;13.50;;
24557;SDS011;12726;49.148;8.582;2023-03-01T08:49:53;22.63;;;13.10;;
24557;SDS011;12726;49.148;8.582;2023-03-01T08:52:40;20.17;;;12.95;;
24557;SDS011;12726;49.148;8.582;2023-03-01T08:55:25;19.60;;;12.63;;
24557;SDS011;12726;49.148;8.582;2023-03-01T08:58:10;20.85;;;12.68;;
24557;SDS011;12726;49.148;8.582;2023-03-01T09:00:56;19.92;;;13.57;;
24557;SDS011;12726;49.148;8.582;2023-03-01T09:03:41;19.92;;;12.30;;
24557;SDS011;12726;49.148;8.582;2023-03-01T09:06:29;19.77;;;12.98;;
24557;SDS011;12726;49.148;8.582;2023-03-01T09:09:17;22.63;;;13.65;;
24557;SDS011;12726;49.148;8.582;2023-03-01T09:12:02;20.90;;;13.15;;
24557;SDS011;12726;49.148;8.582;2023-03-01T09:14:48;23.88;;;13.75;;
24557;SDS011;12726;49.148;8.582;2023-03-01T09:17:34;19.75;;;13.20;;
24557;SDS011;12726;49.148;8.582;2023-03-01T09:20:19;21.75;;;13.82;;
24557;SDS011;12726;49.148;8.582;2023-03-01T09:23:05;20.50;;;13.40;;
24557;SDS011;12726;49.148;8.582;2023-03-01T09:25:52;20.48;;;13.38;;
24557;SDS011;12726;49.148;8.582;2023-03-01T09:28:37;20.55;;;13.77;;
24557;SDS011;12726;49.148;8.582;2023-03-01T09:31:24;21.23;;;13.70;;
24557;SDS011;12726;49.148;8.582;2023-03-01T09:34:13;22.02;;;13.57;;
24557;SDS011;12726;49.148;8.582;2023-03-01T09:36:59;22.63;;;14.68;;
24557;SDS011;12726;49.148;8.582;2023-03-01T09:39:45;21.95;;;13.38;;
24557;SDS011;12726;49.148;8.582;2023-03-01T09:42:32;18.08;;;13.45;;
24557;SDS011;12726;49.148;8.582;2023-03-01T09:45:24;20.63;;;13.20;;
24557;SDS011;12726;49.148;8.582;2023-03-01T09:48:13;19.77;;;13.73;;
24557;SDS011;12726;49.148;8.582;2023-03-01T09:51:01;24.83;;;14.57;;
24557;SDS011;12726;49.148;8.582;2023-03-01T09:53:53;20.50;;;14.40;;
24557;SDS011;12726;49.148;8.582;2023-03-01T09:56:41;23.30;;;14.75;;
24557;SDS011;12726;49.148;8.582;2023-03-01T09:59:33;18.85;;;12.95;;
24557;SDS011;12726;49.148;8.582;2023-03-01T10:02:31;20.77;;;13.20;;
24557;SDS011;12726;49.148;8.582;2023-03-01T10:08:35;22.88;;;13.95;;
24557;SDS011;12726;49.148;8.582;2023-03-01T10:11:26;19.90;;;13.73;;
24557;SDS011;12726;49.148;8.582;2023-03-01T10:14:17;18.38;;;13.23;;
24557;SDS011;12726;49.148;8.582;2023-03-01T10:17:16;23.88;;;14.10;;
24557;SDS011;12726;49.148;8.582;2023-03-01T10:20:14;18.48;;;13.52;;
24557;SDS011;12726;49.148;8.582;2023-03-01T10:23:04;21.38;;;13.77;;
24557;SDS011;12726;49.148;8.582;2023-03-01T10:25:56;20.45;;;14.25;;
24557;SDS011;12726;49.148;8.582;2023-03-01T10:28:51;20.13;;;14.25;;
24557;SDS011;12726;49.148;8.582;2023-03-01T10:31:46;19.67;;;14.18;;
24557;SDS011;12726;49.148;8.582;2023-03-01T10:34:35;20.00;;;12.75;;
24557;SDS011;12726;49.148;8.582;2023-03-01T10:37:21;25.35;;;13.90;;
24557;SDS011;12726;49.148;8.582;2023-03-01T10:40:09;20.25;;;14.00;;
24557;SDS011;12726;49.148;8.582;2023-03-01T10:42:57;19.90;;;13.98;;
24557;SDS011;12726;49.148;8.582;2023-03-01T10:45:44;20.98;;;13.98;;
24557;SDS011;12726;49.148;8.582;2023-03-01T10:48:29;21.38;;;14.77;;
24557;SDS011;12726;49.148;8.582;2023-03-01T10:51:17;20.65;;;13.90;;
24557;SDS011;12726;49.148;8.582;2023-03-01T10:54:04;20.15;;;13.60;;
24557;SDS011;12726;49.148;8.582;2023-03-01T10:56:51;23.77;;;13.20;;
24557;SDS011;12726;49.148;8.582;2023-03-01T10:59:38;21.92;;;13.98;;
24557;SDS011;12726;49.148;8.582;2023-03-01T11:02:25;20.15;;;13.27;;
24557;SDS011;12726;49.148;8.582;2023-03-01T11:05:16;20.73;;;13.80;;
24557;SDS011;12726;49.148;8.582;2023-03-01T11:08:05;19.85;;;13.95;;
24557;SDS011;12726;49.148;8.582;2023-03-01T11:10:50;22.05;;;14.10;;
24557;SDS011;12726;49.148;8.582;2023-03-01T11:13:36;18.55;;;13.57;;
24557;SDS011;12726;49.148;8.582;2023-03-01T11:16:32;19.95;;;13.93;;
24557;SDS011;12726;49.148;8.582;2023-03-01T11:19:20;19.83;;;14.45;;
24557;SDS011;12726;49.148;8.582;2023-03-01T11:22:07;21.73;;;14.07;;
24557;SDS011;12726;49.148;8.582;2023-03-01T11:24:58;20.50;;;14.02;;
24557;SDS011;12726;49.148;8.582;2023-03-01T11:27:45;19.40;;;13.30;;
24557;SDS011;12726;49.148;8.582;2023-03-01T11:30:32;20.73;;;14.43;;
24557;SDS011;12726;49.148;8.582;2023-03-01T11:33:24;20.48;;;15.18;;
24557;SDS011;12726;49.148;8.582;2023-03-01T11:36:22;22.45;;;14.50;;
24557;SDS011;12726;49.148;8.582;2023-03-01T11:39:16;19.05;;;14.00;;
24557;SDS011;12726;49.148;8.582;2023-03-01T11:42:10;19.90;;;13.75;;
24557;SDS011;12726;49.148;8.582;2023-03-01T11:45:00;20.42;;;14.88;;
24557;SDS011;12726;49.148;8.582;2023-03-01T11:47:55;19.58;;;13.68;;
24557;SDS011;12726;49.148;8.582;2023-03-01T11:50:50;18.27;;;13.48;;
24557;SDS011;12726;49.148;8.582;2023-03-01T11:53:44;18.73;;;12.50;;
24557;SDS011;12726;49.148;8.582;2023-03-01T11:56:51;20.40;;;14.15;;
24557;SDS011;12726;49.148;8.582;2023-03-01T11:59:54;19.52;;;13.75;;
24557;SDS011;12726;49.148;8.582;2023-03-01T12:02:58;16.33;;;13.00;;
24557;SDS011;12726;49.148;8.582;2023-03-01T12:06:24;21.90;;;14.30;;
24557;SDS011;12726;49.148;8.582;2023-03-01T12:09:25;19.25;;;14.20;;
24557;SDS011;12726;49.148;8.582;2023-03-01T12:15:19;18.73;;;14.20;;
24557;SDS011;12726;49.148;8.582;2023-03-01T12:18:27;17.90;;;13.00;;
24557;SDS011;12726;49.148;8.582;2023-03-01T12:21:27;16.67;;;12.90;;
24557;SDS011;12726;49.148;8.582;2023-03-01T12:24:26;17.98;;;13.95;;
24557;SDS011;12726;49.148;8.582;2023-03-01T12:27:38;18.83;;;13.70;;
24557;SDS011;12726;49.148;8.582;2023-03-01T12:30:42;18.15;;;13.25;;
24557;SDS011;12726;49.148;8.582;2023-03-01T12:33:41;18.55;;;13.85;;
24557;SDS011;12726;49.148;8.582;2023-03-01T12:36:49;18.77;;;13.93;;
24557;SDS011;12726;49.148;8.582;2023-03-01T12:39:49;18.65;;;13.45;;
24557;SDS011;12726;49.148;8.582;2023-03-01T12:42:45;16.58;;;13.95;;
24557;SDS011;12726;49.148;8.582;2023-03-01T12:45:46;19.23;;;13.88;;
24557;SDS011;12726;49.148;8.582;2023-03-01T12:48:41;19.38;;;14.68;;
24557;SDS011;12726;49.148;8.582;2023-03-01T12:51:32;21.08;;;14.18;;
24557;SDS011;12726;49.148;8.582;2023-03-01T12:54:22;22.27;;;14.07;;
24557;SDS011;12726;49.148;8.582;2023-03-01T12:57:13;19.13;;;13.40;;
24557;SDS011;12726;49.148;8.582;2023-03-01T13:00:06;20.30;;;13.90;;
24557;SDS011;12726;49.148;8.582;2023-03-01T13:03:12;22.15;;;14.77;;
24557;SDS011;12726;49.148;8.582;2023-03-01T13:06:08;18.20;;;12.90;;
24557;SDS011;12726;49.148;8.582;2023-03-01T13:09:02;18.67;;;13.27;;
24557;SDS011;12726;49.148;8.582;2023-03-01T13:11:52;20.73;;;13.93;;
24557;SDS011;12726;49.148;8.582;2023-03-01T13:14:44;16.60;;;12.05;;
24557;SDS011;12726;49.148;8.582;2023-03-01T13:17:32;20.65;;;14.07;;
24557;SDS011;12726;49.148;8.582;2023-03-01T13:20:27;19.02;;;13.23;;
24557;SDS011;12726;49.148;8.582;2023-03-01T13:23:24;19.90;;;13.07;;
24557;SDS011;12726;49.148;8.582;2023-03-01T13:26:12;23.20;;;13.68;;
24557;SDS011;12726;49.148;8.582;2023-03-01T13:28:58;20.23;;;13.63;;
24557;SDS011;12726;49.148;8.582;2023-03-01T13:34:52;21.67;;;13.85;;
24557;SDS011;12726;49.148;8.582;2023-03-01T13:37:44;21.83;;;13.85;;
24557;SDS011;12726;49.148;8.582;2023-03-01T13:43:44;20.00;;;12.57;;
24557;SDS011;12726;49.148;8.582;2023-03-01T13:46:31;19.83;;;12.50;;
24557;SDS011;12726;49.148;8.582;2023-03-01T13:49:18;23.15;;;13.30;;
24557;SDS011;12726;49.148;8.582;2023-03-01T13:52:06;19.08;;;12.50;;
24557;SDS011;12726;49.148;8.582;2023-03-01T13:55:20;20.42;;;12.20;;
24557;SDS011;12726;49.148;8.582;2023-03-01T13:58:15;20.05;;;12.40;;
24557;SDS011;12726;49.148;8.582;2023-03-01T14:01:04;19.30;;;12.75;;
24557;SDS011;12726;49.148;8.582;2023-03-01T14:03:52;21.33;;;13.90;;
24557;SDS011;12726;49.148;8.582;2023-03-01T14:06:37;18.63;;;13.02;;
24557;SDS011;12726;49.148;8.582;2023-03-01T14:09:23;18.95;;;11.77;;
24557;SDS011;12726;49.148;8.582;2023-03-01T14:12:21;22.00;;;13.27;;
24557;SDS011;12726;49.148;8.582;2023-03-01T14:15:26;19.92;;;13.18;;
24557;SDS011;12726;49.148;8.582;2023-03-01T14:18:17;19.83;;;13.55;;
24557;SDS011;12726;49.148;8.582;2023-03-01T14:21:08;21.08;;;14.32;;
24557;SDS011;12726;49.148;8.582;2023-03-01T14:23:54;19.90;;;12.73;;
24557;SDS011;12726;49.148;8.582;2023-03-01T14:26:39;18.92;;;13.38;;
24557;SDS011;12726;49.148;8.582;2023-03-01T14:29:29;18.73;;;13.27;;
24557;SDS011;12726;49.148;8.582;2023-03-01T14:32:20;20.58;;;13.85;;
24557;SDS011;12726;49.148;8.582;2023-03-01T14:35:18;20.08;;;12.82;;
24557;SDS011;12726;49.148;8.582;2023-03-01T14:38:05;20.92;;;12.63;;
24557;SDS011;12726;49.148;8.582;2023-03-01T14:40:51;18.60;;;12.73;;
24557;SDS011;12726;49.148;8.582;2023-03-01T14:43:43;19.50;;;12.30;;
24557;SDS011;12726;49.148;8.582;2023-03-01T14:46:33;20.77;;;13.52;;
24557;SDS011;12726;49.148;8.582;2023-03-01T14:49:21;18.90;;;12.68;;
24557;SDS011;12726;49.148;8.582;2023-03-01T14:52:16;19.45;;;13.40;;
24557;SDS011;12726;49.148;8.582;2023-03-01T14:55:05;18.10;;;12.40;;
24557;SDS011;12726;49.148;8.582;2023-03-01T14:57:52;19.10;;;13.25;;
24557;SDS011;12726;49.148;8.582;2023-03-01T15:00:38;18.75;;;12.70;;
24557;SDS011;12726;49.148;8.582;2023-03-01T15:03:32;21.08;;;12.63;;
24557;SDS011;12726;49.148;8.582;2023-03-01T15:06:22;22.17;;;13.93;;
24557;SDS011;12726;49.148;8.582;2023-03-01T15:09:11;19.77;;;12.15;;
24557;SDS011;12726;49.148;8.582;2023-03-01T15:12:00;21.50;;;13.00;;
24557;SDS011;12726;49.148;8.582;2023-03-01T15:15:19;19.70;;;12.65;;
24557;SDS011;12726;49.148;8.582;2023-03-01T15:18:14;20.25;;;12.55;;
24557;SDS011;12726;49.148;8.582;2023-03-01T15:21:07;24.58;;;13.65;;
24557;SDS011;12726;49.148;8.582;2023-03-01T15:23:55;19.10;;;12.60;;
24557;SDS011;12726;49.148;8.582;2023-03-01T15:26:44;21.88;;;13.32;;
24557;SDS011;12726;49.148;8.582;2023-03-01T15:29:37;21.20;;;12.93;;
24557;SDS011;12726;49.148;8.582;2023-03-01T15:32:25;18.40;;;12.50;;
24557;SDS011;12726;49.148;8.582;2023-03-01T15:35:33;20.35;;;12.13;;
24557;SDS011;12726;49.148;8.582;2023-03-01T15:38:31;18.95;;;12.27;;
24557;SDS011;12726;49.148;8.582;2023-03-01T15:41:23;20.38;;;12.90;;
24557;SDS011;12726;49.148;8.582;2023-03-01T15:44:16;18.80;;;12.40;;
24557;SDS011;12726;49.148;8.582;2023-03-01T15:49:53;19.92;;;12.05;;
24557;SDS011;12726;49.148;8.582;2023-03-01T15:52:40;19.58;;;11.85;;
24557;SDS011;12726;49.148;8.582;2023-03-01T15:55:29;19.75;;;12.30;;
24557;SDS011;12726;49.148;8.582;2023-03-01T15:58:17;18.70;;;12.00;;
24557;SDS011;12726;49.148;8.582;2023-03-01T16:01:07;20.73;;;12.93;;
24557;SDS011;12726;49.148;8.582;2023-03-01T16:03:56;18.17;;;11.80;;
24557;SDS011;12726;49.148;8.582;2023-03-01T16:06:42;22.38;;;12.63;;
24557;SDS011;12726;49.148;8.582;2023-03-01T16:09:27;19.35;;;12.60;;
24557;SDS011;12726;49.148;8.582;2023-03-01T16:12:14;23.40;;;12.23;;
24557;SDS011;12726;49.148;8.582;2023-03-01T16:15:01;18.75;;;11.77;;
24557;SDS011;12726;49.148;8.582;2023-03-01T16:17:46;18.77;;;11.93;;
24557;SDS011;12726;49.148;8.582;2023-03-01T16:20:32;23.73;;;12.88;;
24557;SDS011;12726;49.148;8.582;2023-03-01T16:23:17;21.13;;;12.20;;
24557;SDS011;12726;49.148;8.582;2023-03-01T16:26:02;21.17;;;12.05;;
24557;SDS011;12726;49.148;8.582;2023-03-01T16:28:49;21.67;;;12.98;;
24557;SDS011;12726;49.148;8.582;2023-03-01T16:31:34;21.15;;;13.40;;
24557;SDS011;12726;49.148;8.582;2023-03-01T16:34:19;21.88;;;11.85;;
24557;SDS011;12726;49.148;8.582;2023-03-01T16:37:06;19.15;;;12.02;;
24557;SDS011;12726;49.148;8.582;2023-03-01T16:39:51;19.63;;;11.98;;
24557;SDS011;12726;49.148;8.582;2023-03-01T16:42:36;21.63;;;12.50;;
24557;SDS011;12726;49.148;8.582;2023-03-01T16:45:23;20.17;;;13.05;;